sensor_id;sensor_type;location;lat;lon;timestamp;temperature;humidity
38973;DHT22;25333;50.762;4.470;2023-05-27T00:01:23;12.00;99.30
38973;DHT22;25333;50.762;4.470;2023-05-27T00:03:48;11.80;99.90
38973;DHT22;25333;50.762;4.470;2023-05-27T00:06:14;11.80;99.60
38973;DHT22;25333;50.762;4.470;2023-05-27T00:08:40;11.60;99.90
38973;DHT22;25333;50.762;4.470;2023-05-27T00:11:05;11.60;99.90
38973;DHT22;25333;50.762;4.470;2023-05-27T00:13:31;11.50;99.90
38973;DHT22;25333;50.762;4.470;2023-05-27T00:15:56;11.60;99.90
38973;DHT22;25333;50.762;4.470;2023-05-27T00:18:22;11.50;99.90
38973;DHT22;25333;50.762;4.470;2023-05-27T00:20:48;11.40;99.90
38973;DHT22;25333;50.762;4.470;2023-05-27T00:23:14;11.50;99.90
38973;DHT22;25333;50.762;4.470;2023-05-27T00:25:40;11.50;99.90
38973;DHT22;25333;50.762;4.470;2023-05-27T00:28:06;11.40;99.90
38973;DHT22;25333;50.762;4.470;2023-05-27T00:30:31;11.50;99.90
38973;DHT22;25333;50.762;4.470;2023-05-27T00:32:57;11.40;99.90
38973;DHT22;25333;50.762;4.470;2023-05-27T00:35:23;11.30;99.90
38973;DHT22;25333;50.762;4.470;2023-05-27T00:37:48;11.30;99.90
38973;DHT22;25333;50.762;4.470;2023-05-27T00:40:15;11.30;99.90
38973;DHT22;25333;50.762;4.470;2023-05-27T00:42:42;11.30;99.90
38973;DHT22;25333;50.762;4.470;2023-05-27T00:45:08;11.20;99.90
38973;DHT22;25333;50.762;4.470;2023-05-27T00:47:34;11.20;99.90
38973;DHT22;25333;50.762;4.470;2023-05-27T00:50:01;11.20;99.90
38973;DHT22;25333;50.762;4.470;2023-05-27T00:52:29;11.10;99.90
38973;DHT22;25333;50.762;4.470;2023-05-27T00:54:55;11.10;99.90
38973;DHT22;25333;50.762;4.470;2023-05-27T00:57:22;11.10;99.90
38973;DHT22;25333;50.762;4.470;2023-05-27T00:59:47;11.10;99.90
38973;DHT22;25333;50.762;4.470;2023-05-27T01:02:13;11.10;99.90
38973;DHT22;25333;50.762;4.470;2023-05-27T01:04:40;11.10;99.90
38973;DHT22;25333;50.762;4.470;2023-05-27T01:07:14;11.00;99.90
38973;DHT22;25333;50.762;4.470;2023-05-27T01:09:49;11.00;99.90
38973;DHT22;25333;50.762;4.470;2023-05-27T01:14:57;11.00;99.90
38973;DHT22;25333;50.762;4.470;2023-05-27T01:17:24;10.90;99.90
38973;DHT22;25333;50.762;4.470;2023-05-27T01:19:52;10.90;99.90
38973;DHT22;25333;50.762;4.470;2023-05-27T01:22:20;10.80;99.90
38973;DHT22;25333;50.762;4.470;2023-05-27T01:24:46;10.80;99.90
38973;DHT22;25333;50.762;4.470;2023-05-27T01:27:12;10.80;99.90
38973;DHT22;25333;50.762;4.470;2023-05-27T01:29:41;10.70;99.90
38973;DHT22;25333;50.762;4.470;2023-05-27T01:35:06;10.70;99.90
38973;DHT22;25333;50.762;4.470;2023-05-27T01:37:37;10.60;99.90
38973;DHT22;25333;50.762;4.470;2023-05-27T01:40:05;10.50;99.90
38973;DHT22;25333;50.762;4.470;2023-05-27T01:42:35;10.50;99.90
38973;DHT22;25333;50.762;4.470;2023-05-27T01:45:03;10.60;99.90
38973;DHT22;25333;50.762;4.470;2023-05-27T01:47:30;10.50;99.90
38973;DHT22;25333;50.762;4.470;2023-05-27T01:49:56;10.60;99.90
38973;DHT22;25333;50.762;4.470;2023-05-27T01:52:22;10.60;99.90
38973;DHT22;25333;50.762;4.470;2023-05-27T01:54:47;10.50;99.90
38973;DHT22;25333;50.762;4.470;2023-05-27T01:57:13;10.50;99.90
38973;DHT22;25333;50.762;4.470;2023-05-27T01:59:39;10.50;99.90
38973;DHT22;25333;50.762;4.470;2023-05-27T02:02:05;10.50;99.90
38973;DHT22;25333;50.762;4.470;2023-05-27T02:04:30;10.50;99.90
38973;DHT22;25333;50.762;4.470;2023-05-27T02:06:56;10.40;99.90
38973;DHT22;25333;50.762;4.470;2023-05-27T02:09:22;10.30;99.90
38973;DHT22;25333;50.762;4.470;2023-05-27T02:11:47;10.20;99.90
38973;DHT22;25333;50.762;4.470;2023-05-27T02:14:13;10.20;99.90
38973;DHT22;25333;50.762;4.470;2023-05-27T02:16:39;10.20;99.90
38973;DHT22;25333;50.762;4.470;2023-05-27T02:19:05;10.10;99.90
38973;DHT22;25333;50.762;4.470;2023-05-27T02:21:31;10.00;99.90
38973;DHT22;25333;50.762;4.470;2023-05-27T02:23:57;10.10;99.90
38973;DHT22;25333;50.762;4.470;2023-05-27T02:26:23;10.10;99.90
38973;DHT22;25333;50.762;4.470;2023-05-27T02:28:49;10.10;99.90
38973;DHT22;25333;50.762;4.470;2023-05-27T02:31:15;10.00;99.90
38973;DHT22;25333;50.762;4.470;2023-05-27T02:33:41;10.00;99.90
38973;DHT22;25333;50.762;4.470;2023-05-27T02:36:06;9.90;99.90
38973;DHT22;25333;50.762;4.470;2023-05-27T02:38:32;9.90;99.90
38973;DHT22;25333;50.762;4.470;2023-05-27T02:40:58;9.90;99.90
38973;DHT22;25333;50.762;4.470;2023-05-27T02:43:24;9.90;99.90
38973;DHT22;25333;50.762;4.470;2023-05-27T02:45:49;9.90;99.90
38973;DHT22;25333;50.762;4.470;2023-05-27T02:48:15;9.80;99.90
38973;DHT22;25333;50.762;4.470;2023-05-27T02:50:41;9.80;99.90
38973;DHT22;25333;50.762;4.470;2023-05-27T02:53:06;9.80;99.90
38973;DHT22;25333;50.762;4.470;2023-05-27T02:55:32;9.80;99.90
38973;DHT22;25333;50.762;4.470;2023-05-27T02:57:57;9.80;99.90
38973;DHT22;25333;50.762;4.470;2023-05-27T03:00:23;9.80;99.90
38973;DHT22;25333;50.762;4.470;2023-05-27T03:02:49;9.80;99.90
38973;DHT22;25333;50.762;4.470;2023-05-27T03:05:15;9.70;99.90
38973;DHT22;25333;50.762;4.470;2023-05-27T03:07:40;9.70;99.90
38973;DHT22;25333;50.762;4.470;2023-05-27T03:10:07;9.60;99.90
38973;DHT22;25333;50.762;4.470;2023-05-27T03:12:33;9.60;99.90
38973;DHT22;25333;50.762;4.470;2023-05-27T03:14:59;9.40;99.90
38973;DHT22;25333;50.762;4.470;2023-05-27T03:17:24;9.30;99.90
38973;DHT22;25333;50.762;4.470;2023-05-27T03:19:50;9.30;99.90
38973;DHT22;25333;50.762;4.470;2023-05-27T03:22:16;9.40;99.90
38973;DHT22;25333;50.762;4.470;2023-05-27T03:24:42;9.40;99.90
38973;DHT22;25333;50.762;4.470;2023-05-27T03:27:08;9.30;99.90
38973;DHT22;25333;50.762;4.470;2023-05-27T03:29:33;9.40;99.90
38973;DHT22;25333;50.762;4.470;2023-05-27T03:31:59;9.30;99.90
38973;DHT22;25333;50.762;4.470;2023-05-27T03:34:25;9.40;99.90
38973;DHT22;25333;50.762;4.470;2023-05-27T03:36:51;9.40;99.90
38973;DHT22;25333;50.762;4.470;2023-05-27T03:39:17;9.30;99.90
38973;DHT22;25333;50.762;4.470;2023-05-27T03:41:43;9.30;99.90
38973;DHT22;25333;50.762;4.470;2023-05-27T03:44:09;9.30;99.90
38973;DHT22;25333;50.762;4.470;2023-05-27T03:46:35;9.30;99.90
38973;DHT22;25333;50.762;4.470;2023-05-27T03:49:01;9.20;99.90
38973;DHT22;25333;50.762;4.470;2023-05-27T03:51:27;9.10;99.90
38973;DHT22;25333;50.762;4.470;2023-05-27T03:53:52;9.20;99.90
38973;DHT22;25333;50.762;4.470;2023-05-27T03:56:18;9.30;99.90
38973;DHT22;25333;50.762;4.470;2023-05-27T03:58:44;9.30;99.90
38973;DHT22;25333;50.762;4.470;2023-05-27T04:01:10;9.40;99.90
38973;DHT22;25333;50.762;4.470;2023-05-27T04:03:36;9.40;99.90
38973;DHT22;25333;50.762;4.470;2023-05-27T04:06:02;9.30;99.90
38973;DHT22;25333;50.762;4.470;2023-05-27T04:08:28;9.30;99.90
38973;DHT22;25333;50.762;4.470;2023-05-27T04:10:56;9.30;99.90
38973;DHT22;25333;50.762;4.470;2023-05-27T04:13:21;9.30;99.90
38973;DHT22;25333;50.762;4.470;2023-05-27T04:15:47;9.30;99.90
38973;DHT22;25333;50.762;4.470;2023-05-27T04:18:14;9.20;99.90
38973;DHT22;25333;50.762;4.470;2023-05-27T04:20:41;9.20;99.90
38973;DHT22;25333;50.762;4.470;2023-05-27T04:23:08;9.30;99.90
38973;DHT22;25333;50.762;4.470;2023-05-27T04:25:34;9.30;99.90
38973;DHT22;25333;50.762;4.470;2023-05-27T04:28:03;9.30;99.90
38973;DHT22;25333;50.762;4.470;2023-05-27T04:30:32;9.30;99.90
38973;DHT22;25333;50.762;4.470;2023-05-27T04:32:59;9.40;99.90
38973;DHT22;25333;50.762;4.470;2023-05-27T04:35:25;9.40;99.90
38973;DHT22;25333;50.762;4.470;2023-05-27T04:37:51;9.40;99.90
38973;DHT22;25333;50.762;4.470;2023-05-27T04:40:17;9.40;99.90
38973;DHT22;25333;50.762;4.470;2023-05-27T04:42:43;9.40;99.90
38973;DHT22;25333;50.762;4.470;2023-05-27T04:45:10;9.50;99.90
38973;DHT22;25333;50.762;4.470;2023-05-27T04:47:39;9.50;99.90
38973;DHT22;25333;50.762;4.470;2023-05-27T04:50:07;9.60;99.90
38973;DHT22;25333;50.762;4.470;2023-05-27T04:52:33;9.60;99.90
38973;DHT22;25333;50.762;4.470;2023-05-27T04:55:06;9.60;99.90
38973;DHT22;25333;50.762;4.470;2023-05-27T04:57:32;9.60;99.90
38973;DHT22;25333;50.762;4.470;2023-05-27T04:59:58;9.70;99.90
38973;DHT22;25333;50.762;4.470;2023-05-27T05:02:43;9.70;99.90
38973;DHT22;25333;50.762;4.470;2023-05-27T05:05:11;9.70;99.90
38973;DHT22;25333;50.762;4.470;2023-05-27T05:07:38;9.70;99.90
38973;DHT22;25333;50.762;4.470;2023-05-27T05:10:08;9.80;99.90
38973;DHT22;25333;50.762;4.470;2023-05-27T05:12:34;9.80;99.90
38973;DHT22;25333;50.762;4.470;2023-05-27T05:15:00;9.90;99.90
38973;DHT22;25333;50.762;4.470;2023-05-27T05:17:26;10.00;99.90
38973;DHT22;25333;50.762;4.470;2023-05-27T05:19:52;10.00;99.90
38973;DHT22;25333;50.762;4.470;2023-05-27T05:22:18;10.10;99.90
38973;DHT22;25333;50.762;4.470;2023-05-27T05:24:45;10.10;99.90
38973;DHT22;25333;50.762;4.470;2023-05-27T05:27:11;10.20;99.90
38973;DHT22;25333;50.762;4.470;2023-05-27T05:29:37;10.30;99.90
38973;DHT22;25333;50.762;4.470;2023-05-27T05:32:03;10.20;99.90
38973;DHT22;25333;50.762;4.470;2023-05-27T05:34:29;10.30;99.90
38973;DHT22;25333;50.762;4.470;2023-05-27T05:36:55;10.40;99.90
38973;DHT22;25333;50.762;4.470;2023-05-27T05:39:21;10.50;99.90
38973;DHT22;25333;50.762;4.470;2023-05-27T05:41:46;10.50;99.90
38973;DHT22;25333;50.762;4.470;2023-05-27T05:44:12;10.50;99.90
38973;DHT22;25333;50.762;4.470;2023-05-27T05:46:38;10.60;99.90
38973;DHT22;25333;50.762;4.470;2023-05-27T05:49:04;10.70;99.90
38973;DHT22;25333;50.762;4.470;2023-05-27T05:51:30;10.70;99.90
38973;DHT22;25333;50.762;4.470;2023-05-27T05:53:57;10.70;99.90
38973;DHT22;25333;50.762;4.470;2023-05-27T05:56:23;10.70;99.90
38973;DHT22;25333;50.762;4.470;2023-05-27T05:58:48;10.80;99.90
38973;DHT22;25333;50.762;4.470;2023-05-27T06:01:15;10.90;99.90
38973;DHT22;25333;50.762;4.470;2023-05-27T06:03:40;10.90;99.90
38973;DHT22;25333;50.762;4.470;2023-05-27T06:06:06;11.00;99.90
38973;DHT22;25333;50.762;4.470;2023-05-27T06:08:32;11.10;99.90
38973;DHT22;25333;50.762;4.470;2023-05-27T06:10:58;11.20;99.90
38973;DHT22;25333;50.762;4.470;2023-05-27T06:13:24;11.30;99.90
38973;DHT22;25333;50.762;4.470;2023-05-27T06:15:49;11.40;99.90
38973;DHT22;25333;50.762;4.470;2023-05-27T06:18:15;11.50;99.90
38973;DHT22;25333;50.762;4.470;2023-05-27T06:20:41;11.60;99.90
38973;DHT22;25333;50.762;4.470;2023-05-27T06:23:06;11.70;99.90
38973;DHT22;25333;50.762;4.470;2023-05-27T06:25:32;11.70;99.90
38973;DHT22;25333;50.762;4.470;2023-05-27T06:27:58;11.80;99.90
38973;DHT22;25333;50.762;4.470;2023-05-27T06:30:24;12.00;99.90
38973;DHT22;25333;50.762;4.470;2023-05-27T06:32:51;12.00;99.90
38973;DHT22;25333;50.762;4.470;2023-05-27T06:35:17;12.20;99.90
38973;DHT22;25333;50.762;4.470;2023-05-27T06:37:42;12.30;99.90
38973;DHT22;25333;50.762;4.470;2023-05-27T06:40:09;12.40;99.90
38973;DHT22;25333;50.762;4.470;2023-05-27T06:42:36;12.30;99.90
38973;DHT22;25333;50.762;4.470;2023-05-27T06:45:02;12.50;99.90
38973;DHT22;25333;50.762;4.470;2023-05-27T06:47:27;12.70;99.90
38973;DHT22;25333;50.762;4.470;2023-05-27T06:49:53;12.90;99.90
38973;DHT22;25333;50.762;4.470;2023-05-27T06:52:18;13.10;99.90
38973;DHT22;25333;50.762;4.470;2023-05-27T06:54:44;13.20;99.90
38973;DHT22;25333;50.762;4.470;2023-05-27T06:57:11;13.20;99.90
38973;DHT22;25333;50.762;4.470;2023-05-27T06:59:37;13.20;99.90
38973;DHT22;25333;50.762;4.470;2023-05-27T07:02:03;13.30;99.90
38973;DHT22;25333;50.762;4.470;2023-05-27T07:04:29;13.30;99.90
38973;DHT22;25333;50.762;4.470;2023-05-27T07:06:54;13.40;99.90
38973;DHT22;25333;50.762;4.470;2023-05-27T07:09:20;13.50;99.90
38973;DHT22;25333;50.762;4.470;2023-05-27T07:11:45;13.50;99.90
38973;DHT22;25333;50.762;4.470;2023-05-27T07:14:11;13.60;99.90
38973;DHT22;25333;50.762;4.470;2023-05-27T07:16:37;13.70;99.90
38973;DHT22;25333;50.762;4.470;2023-05-27T07:19:02;13.70;99.90
38973;DHT22;25333;50.762;4.470;2023-05-27T07:21:28;13.60;99.90
38973;DHT22;25333;50.762;4.470;2023-05-27T07:23:54;13.70;99.90
38973;DHT22;25333;50.762;4.470;2023-05-27T07:26:20;13.70;99.90
38973;DHT22;25333;50.762;4.470;2023-05-27T07:28:46;13.80;99.90
38973;DHT22;25333;50.762;4.470;2023-05-27T07:31:11;13.80;99.90
38973;DHT22;25333;50.762;4.470;2023-05-27T07:33:37;13.80;99.90
38973;DHT22;25333;50.762;4.470;2023-05-27T07:36:03;13.90;99.90
38973;DHT22;25333;50.762;4.470;2023-05-27T07:38:30;13.80;99.90
38973;DHT22;25333;50.762;4.470;2023-05-27T07:40:56;13.70;99.90
38973;DHT22;25333;50.762;4.470;2023-05-27T07:43:21;13.80;99.90
38973;DHT22;25333;50.762;4.470;2023-05-27T07:45:47;13.80;99.90
38973;DHT22;25333;50.762;4.470;2023-05-27T07:48:12;13.90;99.90
38973;DHT22;25333;50.762;4.470;2023-05-27T07:50:38;14.00;99.90
38973;DHT22;25333;50.762;4.470;2023-05-27T07:53:04;14.00;99.90
38973;DHT22;25333;50.762;4.470;2023-05-27T07:55:29;14.10;99.90
38973;DHT22;25333;50.762;4.470;2023-05-27T07:57:55;14.20;99.90
38973;DHT22;25333;50.762;4.470;2023-05-27T08:00:22;14.30;99.90
38973;DHT22;25333;50.762;4.470;2023-05-27T08:02:47;14.30;99.90
38973;DHT22;25333;50.762;4.470;2023-05-27T08:05:13;14.50;99.90
38973;DHT22;25333;50.762;4.470;2023-05-27T08:07:39;14.60;99.90
38973;DHT22;25333;50.762;4.470;2023-05-27T08:10:06;14.60;99.90
38973;DHT22;25333;50.762;4.470;2023-05-27T08:12:33;14.70;99.70
38973;DHT22;25333;50.762;4.470;2023-05-27T08:14:58;14.80;99.60
38973;DHT22;25333;50.762;4.470;2023-05-27T08:17:24;14.80;99.50
38973;DHT22;25333;50.762;4.470;2023-05-27T08:19:49;14.90;99.70
38973;DHT22;25333;50.762;4.470;2023-05-27T08:22:15;14.90;99.60
38973;DHT22;25333;50.762;4.470;2023-05-27T08:24:41;14.90;99.60
38973;DHT22;25333;50.762;4.470;2023-05-27T08:27:14;15.00;99.90
38973;DHT22;25333;50.762;4.470;2023-05-27T08:29:44;15.10;99.50
38973;DHT22;25333;50.762;4.470;2023-05-27T08:32:10;15.10;99.20
38973;DHT22;25333;50.762;4.470;2023-05-27T08:34:38;15.00;99.20
38973;DHT22;25333;50.762;4.470;2023-05-27T08:37:04;15.00;98.90
38973;DHT22;25333;50.762;4.470;2023-05-27T08:39:31;15.10;99.40
38973;DHT22;25333;50.762;4.470;2023-05-27T08:41:57;15.20;99.80
38973;DHT22;25333;50.762;4.470;2023-05-27T08:44:25;15.40;98.90
38973;DHT22;25333;50.762;4.470;2023-05-27T08:46:51;15.40;98.60
38973;DHT22;25333;50.762;4.470;2023-05-27T08:49:17;15.40;98.90
38973;DHT22;25333;50.762;4.470;2023-05-27T08:51:45;15.60;99.40
38973;DHT22;25333;50.762;4.470;2023-05-27T08:54:10;15.70;98.20
38973;DHT22;25333;50.762;4.470;2023-05-27T08:56:37;15.70;98.60
38973;DHT22;25333;50.762;4.470;2023-05-27T08:59:05;15.90;99.30
38973;DHT22;25333;50.762;4.470;2023-05-27T09:01:36;16.10;99.10
38973;DHT22;25333;50.762;4.470;2023-05-27T09:04:02;16.20;97.60
38973;DHT22;25333;50.762;4.470;2023-05-27T09:06:30;16.30;98.30
38973;DHT22;25333;50.762;4.470;2023-05-27T09:08:59;16.30;97.30
38973;DHT22;25333;50.762;4.470;2023-05-27T09:11:26;16.30;97.10
38973;DHT22;25333;50.762;4.470;2023-05-27T09:13:54;16.30;97.50
38973;DHT22;25333;50.762;4.470;2023-05-27T09:16:22;16.40;97.70
38973;DHT22;25333;50.762;4.470;2023-05-27T09:18:48;16.40;97.00
38973;DHT22;25333;50.762;4.470;2023-05-27T09:21:15;16.50;97.80
38973;DHT22;25333;50.762;4.470;2023-05-27T09:23:40;16.60;97.70
38973;DHT22;25333;50.762;4.470;2023-05-27T09:26:08;16.80;97.30
38973;DHT22;25333;50.762;4.470;2023-05-27T09:28:36;16.90;97.40
38973;DHT22;25333;50.762;4.470;2023-05-27T09:31:08;17.00;96.90
38973;DHT22;25333;50.762;4.470;2023-05-27T09:33:41;17.10;96.50
38973;DHT22;25333;50.762;4.470;2023-05-27T09:36:07;17.20;96.40
38973;DHT22;25333;50.762;4.470;2023-05-27T09:38:35;17.30;97.50
38973;DHT22;25333;50.762;4.470;2023-05-27T09:41:02;17.40;96.60
38973;DHT22;25333;50.762;4.470;2023-05-27T09:43:29;17.50;97.20
38973;DHT22;25333;50.762;4.470;2023-05-27T09:46:09;17.70;95.90
38973;DHT22;25333;50.762;4.470;2023-05-27T09:48:37;17.80;95.90
38973;DHT22;25333;50.762;4.470;2023-05-27T09:51:03;17.90;96.60
38973;DHT22;25333;50.762;4.470;2023-05-27T09:53:29;18.10;96.70
38973;DHT22;25333;50.762;4.470;2023-05-27T09:55:57;18.30;95.70
38973;DHT22;25333;50.762;4.470;2023-05-27T09:58:25;18.40;95.50
38973;DHT22;25333;50.762;4.470;2023-05-27T10:00:51;18.50;96.50
38973;DHT22;25333;50.762;4.470;2023-05-27T10:03:23;18.60;94.90
38973;DHT22;25333;50.762;4.470;2023-05-27T10:05:53;18.60;96.40
38973;DHT22;25333;50.762;4.470;2023-05-27T10:08:25;18.70;94.00
38973;DHT22;25333;50.762;4.470;2023-05-27T10:18:26;19.30;95.10
38973;DHT22;25333;50.762;4.470;2023-05-27T10:21:05;19.60;95.30
38973;DHT22;25333;50.762;4.470;2023-05-27T10:26:45;19.70;94.20
38973;DHT22;25333;50.762;4.470;2023-05-27T10:29:17;20.00;95.30
38973;DHT22;25333;50.762;4.470;2023-05-27T10:32:26;20.10;94.40
38973;DHT22;25333;50.762;4.470;2023-05-27T10:35:18;20.10;95.20
38973;DHT22;25333;50.762;4.470;2023-05-27T10:41:49;20.50;94.20
38973;DHT22;25333;50.762;4.470;2023-05-27T10:44:26;20.30;91.90
38973;DHT22;25333;50.762;4.470;2023-05-27T10:47:15;20.20;92.50
38973;DHT22;25333;50.762;4.470;2023-05-27T10:49:45;20.20;92.10
38973;DHT22;25333;50.762;4.470;2023-05-27T10:52:13;20.30;93.40
38973;DHT22;25333;50.762;4.470;2023-05-27T10:54:40;20.40;92.40
38973;DHT22;25333;50.762;4.470;2023-05-27T10:57:07;20.60;92.40
38973;DHT22;25333;50.762;4.470;2023-05-27T10:59:49;20.80;91.80
38973;DHT22;25333;50.762;4.470;2023-05-27T11:02:16;20.80;91.00
38973;DHT22;25333;50.762;4.470;2023-05-27T11:04:42;20.80;90.80
38973;DHT22;25333;50.762;4.470;2023-05-27T11:07:12;21.00;93.00
38973;DHT22;25333;50.762;4.470;2023-05-27T11:09:45;21.50;91.00
38973;DHT22;25333;50.762;4.470;2023-05-27T11:15:25;21.70;90.10
38973;DHT22;25333;50.762;4.470;2023-05-27T11:18:02;21.80;90.40
38973;DHT22;25333;50.762;4.470;2023-05-27T11:20:38;21.80;87.90
38973;DHT22;25333;50.762;4.470;2023-05-27T11:23:03;21.80;89.60
38973;DHT22;25333;50.762;4.470;2023-05-27T11:25:43;21.90;88.20
38973;DHT22;25333;50.762;4.470;2023-05-27T11:28:15;21.70;88.90
38973;DHT22;25333;50.762;4.470;2023-05-27T11:30:57;21.80;86.90
38973;DHT22;25333;50.762;4.470;2023-05-27T11:34:04;21.60;88.40
38973;DHT22;25333;50.762;4.470;2023-05-27T11:36:55;21.90;88.30
38973;DHT22;25333;50.762;4.470;2023-05-27T11:39:27;21.90;85.80
38973;DHT22;25333;50.762;4.470;2023-05-27T11:41:53;22.00;87.30
38973;DHT22;25333;50.762;4.470;2023-05-27T11:44:21;21.90;86.70
38973;DHT22;25333;50.762;4.470;2023-05-27T11:46:48;22.00;86.60
38973;DHT22;25333;50.762;4.470;2023-05-27T11:49:15;22.20;86.90
38973;DHT22;25333;50.762;4.470;2023-05-27T11:54:23;21.90;83.90
38973;DHT22;25333;50.762;4.470;2023-05-27T11:56:50;21.90;83.50
38973;DHT22;25333;50.762;4.470;2023-05-27T11:59:17;22.10;87.10
38973;DHT22;25333;50.762;4.470;2023-05-27T12:01:45;22.10;84.60
38973;DHT22;25333;50.762;4.470;2023-05-27T12:04:31;22.10;86.30
38973;DHT22;25333;50.762;4.470;2023-05-27T12:06:57;22.20;85.50
38973;DHT22;25333;50.762;4.470;2023-05-27T12:09:26;22.00;80.90
38973;DHT22;25333;50.762;4.470;2023-05-27T12:11:52;21.80;82.40
38973;DHT22;25333;50.762;4.470;2023-05-27T12:14:18;21.60;81.70
38973;DHT22;25333;50.762;4.470;2023-05-27T12:16:47;21.70;86.50
38973;DHT22;25333;50.762;4.470;2023-05-27T12:19:14;21.60;82.10
38973;DHT22;25333;50.762;4.470;2023-05-27T12:22:22;21.80;89.30
38973;DHT22;25333;50.762;4.470;2023-05-27T12:24:48;21.90;86.10
38973;DHT22;25333;50.762;4.470;2023-05-27T12:27:20;21.80;84.40
38973;DHT22;25333;50.762;4.470;2023-05-27T12:29:45;21.90;82.90
38973;DHT22;25333;50.762;4.470;2023-05-27T12:32:12;22.00;90.40
38973;DHT22;25333;50.762;4.470;2023-05-27T12:34:37;22.20;89.50
38973;DHT22;25333;50.762;4.470;2023-05-27T12:37:03;22.30;86.20
38973;DHT22;25333;50.762;4.470;2023-05-27T12:39:29;22.30;85.60
38973;DHT22;25333;50.762;4.470;2023-05-27T12:41:54;22.20;90.20
38973;DHT22;25333;50.762;4.470;2023-05-27T12:44:20;22.20;88.80
38973;DHT22;25333;50.762;4.470;2023-05-27T12:46:46;22.30;85.10
38973;DHT22;25333;50.762;4.470;2023-05-27T12:49:11;22.30;87.40
38973;DHT22;25333;50.762;4.470;2023-05-27T12:51:37;22.40;85.90
38973;DHT22;25333;50.762;4.470;2023-05-27T12:54:03;22.40;85.80
38973;DHT22;25333;50.762;4.470;2023-05-27T12:56:29;22.20;81.30
38973;DHT22;25333;50.762;4.470;2023-05-27T12:58:55;21.90;81.80
38973;DHT22;25333;50.762;4.470;2023-05-27T13:01:21;22.10;82.40
38973;DHT22;25333;50.762;4.470;2023-05-27T13:03:49;22.00;83.40
38973;DHT22;25333;50.762;4.470;2023-05-27T13:06:16;21.90;84.00
38973;DHT22;25333;50.762;4.470;2023-05-27T13:08:42;21.90;81.90
38973;DHT22;25333;50.762;4.470;2023-05-27T13:11:07;21.90;82.30
38973;DHT22;25333;50.762;4.470;2023-05-27T13:13:33;22.10;83.50
38973;DHT22;25333;50.762;4.470;2023-05-27T13:15:58;22.00;84.60
38973;DHT22;25333;50.762;4.470;2023-05-27T13:18:24;21.80;81.10
38973;DHT22;25333;50.762;4.470;2023-05-27T13:20:50;21.80;83.10
38973;DHT22;25333;50.762;4.470;2023-05-27T13:23:16;21.80;83.90
38973;DHT22;25333;50.762;4.470;2023-05-27T13:25:42;21.80;82.00
38973;DHT22;25333;50.762;4.470;2023-05-27T13:28:07;21.80;85.30
38973;DHT22;25333;50.762;4.470;2023-05-27T13:30:33;21.90;85.30
38973;DHT22;25333;50.762;4.470;2023-05-27T13:32:59;21.90;84.10
38973;DHT22;25333;50.762;4.470;2023-05-27T13:35:25;22.00;84.60
38973;DHT22;25333;50.762;4.470;2023-05-27T13:37:50;21.90;83.60
38973;DHT22;25333;50.762;4.470;2023-05-27T13:40:16;22.00;81.90
38973;DHT22;25333;50.762;4.470;2023-05-27T13:42:42;22.00;80.40
38973;DHT22;25333;50.762;4.470;2023-05-27T13:45:08;22.10;81.30
38973;DHT22;25333;50.762;4.470;2023-05-27T13:47:34;22.10;81.30
38973;DHT22;25333;50.762;4.470;2023-05-27T13:50:00;21.90;79.80
38973;DHT22;25333;50.762;4.470;2023-05-27T13:52:25;21.80;82.00
38973;DHT22;25333;50.762;4.470;2023-05-27T13:54:52;21.80;83.30
38973;DHT22;25333;50.762;4.470;2023-05-27T13:57:17;21.80;81.70
38973;DHT22;25333;50.762;4.470;2023-05-27T13:59:43;21.90;81.20
38973;DHT22;25333;50.762;4.470;2023-05-27T14:02:09;22.00;80.80
38973;DHT22;25333;50.762;4.470;2023-05-27T14:04:34;22.00;80.10
38973;DHT22;25333;50.762;4.470;2023-05-27T14:07:03;22.00;81.80
38973;DHT22;25333;50.762;4.470;2023-05-27T14:09:28;22.10;81.90
38973;DHT22;25333;50.762;4.470;2023-05-27T14:11:54;22.10;78.50
38973;DHT22;25333;50.762;4.470;2023-05-27T14:14:21;22.00;79.90
38973;DHT22;25333;50.762;4.470;2023-05-27T14:16:46;22.00;78.90
38973;DHT22;25333;50.762;4.470;2023-05-27T14:19:13;22.00;80.50
38973;DHT22;25333;50.762;4.470;2023-05-27T14:21:38;22.10;81.50
38973;DHT22;25333;50.762;4.470;2023-05-27T14:24:04;22.10;82.10
38973;DHT22;25333;50.762;4.470;2023-05-27T14:26:30;22.20;81.40
38973;DHT22;25333;50.762;4.470;2023-05-27T14:28:56;22.20;79.20
38973;DHT22;25333;50.762;4.470;2023-05-27T14:31:21;22.20;79.90
38973;DHT22;25333;50.762;4.470;2023-05-27T14:33:50;22.10;78.10
38973;DHT22;25333;50.762;4.470;2023-05-27T14:36:16;22.00;78.90
38973;DHT22;25333;50.762;4.470;2023-05-27T14:38:41;22.00;79.60
38973;DHT22;25333;50.762;4.470;2023-05-27T14:41:07;22.00;80.30
38973;DHT22;25333;50.762;4.470;2023-05-27T14:43:34;22.10;78.50
38973;DHT22;25333;50.762;4.470;2023-05-27T14:45:59;22.10;77.20
38973;DHT22;25333;50.762;4.470;2023-05-27T14:48:25;22.10;78.50
38973;DHT22;25333;50.762;4.470;2023-05-27T14:50:51;22.00;79.60
38973;DHT22;25333;50.762;4.470;2023-05-27T14:53:16;22.00;78.50
38973;DHT22;25333;50.762;4.470;2023-05-27T14:55:42;22.00;79.60
38973;DHT22;25333;50.762;4.470;2023-05-27T14:58:08;21.90;77.20
38973;DHT22;25333;50.762;4.470;2023-05-27T15:00:33;21.90;78.30
38973;DHT22;25333;50.762;4.470;2023-05-27T15:03:07;21.90;77.60
38973;DHT22;25333;50.762;4.470;2023-05-27T15:05:36;21.90;77.90
38973;DHT22;25333;50.762;4.470;2023-05-27T15:08:01;22.00;78.60
38973;DHT22;25333;50.762;4.470;2023-05-27T15:10:30;22.00;78.40
38973;DHT22;25333;50.762;4.470;2023-05-27T15:12:55;22.00;78.90
38973;DHT22;25333;50.762;4.470;2023-05-27T15:15:21;22.00;76.50
38973;DHT22;25333;50.762;4.470;2023-05-27T15:17:47;22.00;76.60
38973;DHT22;25333;50.762;4.470;2023-05-27T15:20:15;22.10;78.80
38973;DHT22;25333;50.762;4.470;2023-05-27T15:22:41;22.10;79.40
38973;DHT22;25333;50.762;4.470;2023-05-27T15:25:08;22.10;78.00
38973;DHT22;25333;50.762;4.470;2023-05-27T15:27:33;22.10;76.20
38973;DHT22;25333;50.762;4.470;2023-05-27T15:30:00;22.00;77.10
38973;DHT22;25333;50.762;4.470;2023-05-27T15:32:26;22.00;77.40
38973;DHT22;25333;50.762;4.470;2023-05-27T15:34:51;22.10;77.20
38973;DHT22;25333;50.762;4.470;2023-05-27T15:37:17;22.20;75.30
38973;DHT22;25333;50.762;4.470;2023-05-27T15:39:43;22.20;78.10
38973;DHT22;25333;50.762;4.470;2023-05-27T15:42:09;22.20;75.40
38973;DHT22;25333;50.762;4.470;2023-05-27T15:44:35;22.20;76.00
38973;DHT22;25333;50.762;4.470;2023-05-27T15:47:00;22.30;75.70
38973;DHT22;25333;50.762;4.470;2023-05-27T15:49:26;22.30;76.90
38973;DHT22;25333;50.762;4.470;2023-05-27T15:51:51;22.40;75.30
38973;DHT22;25333;50.762;4.470;2023-05-27T15:54:20;22.40;78.00
38973;DHT22;25333;50.762;4.470;2023-05-27T15:56:45;22.40;75.90
38973;DHT22;25333;50.762;4.470;2023-05-27T15:59:11;22.50;77.70